createdAt,value
2023-05-15T00:02:18.181Z,2.20
2023-05-15T00:04:47.553Z,1.80
2023-05-15T00:07:14.306Z,1.80
2023-05-15T00:09:45.854Z,2.00
2023-05-15T00:12:12.636Z,2.00
2023-05-15T00:14:41.567Z,1.83
2023-05-15T00:17:08.730Z,2.00
2023-05-15T00:19:37.818Z,2.15
2023-05-15T00:22:04.737Z,2.03
2023-05-15T00:24:33.902Z,2.10
2023-05-15T00:27:05.506Z,2.30
2023-05-15T00:29:32.170Z,2.00
2023-05-15T00:31:59.015Z,1.85
2023-05-15T00:34:28.077Z,1.83
2023-05-15T00:36:54.854Z,1.80
2023-05-15T00:39:26.374Z,1.87
2023-05-15T00:41:54.948Z,2.03
2023-05-15T00:44:22.293Z,1.80
2023-05-15T00:46:51.820Z,1.70
2023-05-15T00:49:20.089Z,1.97
2023-05-15T00:51:46.736Z,2.00
2023-05-15T00:54:18.218Z,1.97
2023-05-15T00:56:50.885Z,1.83
2023-05-15T00:59:18.333Z,1.90
2023-05-15T01:01:45.344Z,1.67
2023-05-15T01:04:12.240Z,1.90
2023-05-15T01:06:38.922Z,1.63
2023-05-15T01:09:09.295Z,1.80
2023-05-15T01:11:39.502Z,1.90
2023-05-15T01:14:07.263Z,1.57
2023-05-15T01:16:35.859Z,1.87
2023-05-15T01:19:03.897Z,1.77
2023-05-15T01:21:37.412Z,2.00
2023-05-15T01:24:28.213Z,1.80
2023-05-15T01:27:24.147Z,2.13
2023-05-15T01:30:07.924Z,1.90
2023-05-15T01:32:42.966Z,1.87
2023-05-15T01:35:14.553Z,1.80
2023-05-15T01:37:45.665Z,1.90
2023-05-15T01:40:16.724Z,2.00
2023-05-15T01:42:56.182Z,1.70
2023-05-15T01:45:27.994Z,1.80
2023-05-15T01:47:59.309Z,1.53
2023-05-15T01:50:30.906Z,1.60
2023-05-15T01:52:59.934Z,1.90
2023-05-15T01:55:29.190Z,1.70
2023-05-15T01:57:57.741Z,1.77
2023-05-15T02:00:27.495Z,1.73
2023-05-15T02:02:57.870Z,1.50
2023-05-15T02:05:26.170Z,1.77
2023-05-15T02:07:53.619Z,1.40
2023-05-15T02:10:23.018Z,1.60
2023-05-15T02:12:50.435Z,1.53
2023-05-15T02:15:19.829Z,1.90
2023-05-15T02:17:46.729Z,1.63
2023-05-15T02:20:14.327Z,1.60
2023-05-15T02:22:41.029Z,1.52
2023-05-15T02:25:12.751Z,1.50
2023-05-15T02:28:00.679Z,1.60
2023-05-15T02:30:48.647Z,1.43
2023-05-15T02:33:42.226Z,1.37
2023-05-15T02:36:19.474Z,1.50
2023-05-15T02:38:53.359Z,1.60
2023-05-15T02:41:26.268Z,1.77
2023-05-15T02:43:55.231Z,1.93
2023-05-15T02:46:25.420Z,1.47
2023-05-15T02:48:55.639Z,1.50
2023-05-15T02:51:24.479Z,1.43
2023-05-15T02:53:52.327Z,1.60
2023-05-15T02:56:22.209Z,1.40
2023-05-15T02:58:49.692Z,1.53
2023-05-15T03:01:16.397Z,1.63
2023-05-15T03:03:43.462Z,1.53
2023-05-15T03:06:10.151Z,1.80
2023-05-15T03:08:39.296Z,1.73
2023-05-15T03:11:06.093Z,1.60
2023-05-15T03:13:34.879Z,1.33
2023-05-15T03:16:01.638Z,1.60
2023-05-15T03:18:28.334Z,1.60
2023-05-15T03:20:55.134Z,1.80
2023-05-15T03:23:26.565Z,1.60
2023-05-15T03:25:55.968Z,1.60
2023-05-15T03:28:23.092Z,1.67
2023-05-15T03:30:50.632Z,1.53
2023-05-15T03:33:19.548Z,1.50
2023-05-15T03:35:46.282Z,1.77
2023-05-15T03:38:15.354Z,1.60
2023-05-15T03:40:42.037Z,1.80
2023-05-15T03:43:11.498Z,1.90
2023-05-15T03:45:39.119Z,1.67
2023-05-15T03:48:06.194Z,1.53
2023-05-15T03:50:33.495Z,1.70
2023-05-15T03:53:00.636Z,1.70
2023-05-15T03:55:27.961Z,1.70
2023-05-15T03:57:57.422Z,1.60
2023-05-15T04:00:24.706Z,1.53
2023-05-15T04:02:56.817Z,1.57
2023-05-15T04:05:28.592Z,1.70
2023-05-15T04:07:57.785Z,1.50
2023-05-15T04:10:25.572Z,1.70
2023-05-15T04:12:52.658Z,1.80
2023-05-15T04:15:26.964Z,1.50
2023-05-15T04:17:54.334Z,1.67
2023-05-15T04:20:24.864Z,1.40
2023-05-15T04:22:54.416Z,1.40
2023-05-15T04:25:21.526Z,1.70
2023-05-15T04:27:49.261Z,1.20
2023-05-15T04:30:20.732Z,1.67
2023-05-15T04:32:47.950Z,1.70
2023-05-15T04:35:17.949Z,1.50
2023-05-15T04:37:47.634Z,1.50
2023-05-15T04:40:17.400Z,1.57
2023-05-15T04:42:44.357Z,1.60
2023-05-15T04:45:11.274Z,1.30
2023-05-15T04:47:38.541Z,1.47
2023-05-15T04:50:06.661Z,1.77
2023-05-15T04:52:36.118Z,1.60
2023-05-15T04:55:03.531Z,1.47
2023-05-15T04:57:30.765Z,1.73
2023-05-15T04:59:58.197Z,1.90
2023-05-15T05:02:25.439Z,1.50
2023-05-15T05:04:52.139Z,1.97
2023-05-15T05:07:21.388Z,1.70
2023-05-15T05:09:48.539Z,1.90
2023-05-15T05:12:15.623Z,2.17
2023-05-15T05:14:44.752Z,1.87
2023-05-15T05:17:11.603Z,1.83
2023-05-15T05:19:40.523Z,1.80
2023-05-15T05:22:07.938Z,2.23
2023-05-15T05:24:37.579Z,2.20
2023-05-15T05:27:07.036Z,1.73
2023-05-15T05:29:34.258Z,2.03
2023-05-15T05:32:01.363Z,2.00
2023-05-15T05:34:28.276Z,1.80
2023-05-15T05:36:55.171Z,2.00
2023-05-15T05:39:21.838Z,2.07
2023-05-15T05:41:48.594Z,2.00
2023-05-15T05:44:15.629Z,1.90
2023-05-15T05:46:45.492Z,2.05
2023-05-15T05:49:14.447Z,3.27
2023-05-15T05:51:41.384Z,2.93
2023-05-15T05:54:08.122Z,2.63
2023-05-15T05:56:34.923Z,2.50
2023-05-15T05:59:02.942Z,2.80
2023-05-15T06:01:30.202Z,2.77
2023-05-15T06:03:59.751Z,2.50
2023-05-15T06:06:26.630Z,2.40
2023-05-15T06:08:56.566Z,2.40
2023-05-15T06:11:25.850Z,2.80
2023-05-15T06:13:52.879Z,2.60
2023-05-15T06:16:19.734Z,2.57
2023-05-15T06:18:47.083Z,2.60
2023-05-15T06:21:13.810Z,2.43
2023-05-15T06:23:41.162Z,2.57
2023-05-15T06:26:07.946Z,2.80
2023-05-15T06:28:34.748Z,2.80
2023-05-15T06:31:01.599Z,2.63
2023-05-15T06:33:28.370Z,2.60
2023-05-15T06:35:57.586Z,2.58
2023-05-15T06:38:24.297Z,2.40
2023-05-15T06:40:51.060Z,2.33
2023-05-15T06:43:18.190Z,2.73
2023-05-15T06:45:44.910Z,2.57
2023-05-15T06:48:11.703Z,2.70
2023-05-15T06:50:38.476Z,2.67
2023-05-15T06:53:05.451Z,2.30
2023-05-15T06:55:38.464Z,2.60
2023-05-15T06:58:05.543Z,2.53
2023-05-15T07:00:32.715Z,2.17
2023-05-15T07:02:59.470Z,2.30
2023-05-15T07:05:26.728Z,2.13
2023-05-15T07:07:53.750Z,2.10
2023-05-15T07:10:20.484Z,2.10
2023-05-15T07:12:49.337Z,2.30
2023-05-15T07:15:17.650Z,2.33
2023-05-15T07:17:46.602Z,2.30
2023-05-15T07:20:13.368Z,2.30
2023-05-15T07:22:51.925Z,2.80
2023-05-15T07:25:25.781Z,2.60
2023-05-15T07:27:55.683Z,2.97
2023-05-15T07:30:23.310Z,2.40
2023-05-15T07:32:52.679Z,3.03
2023-05-15T07:35:22.616Z,2.87
2023-05-15T07:37:49.450Z,2.67
2023-05-15T07:40:18.585Z,2.80
2023-05-15T07:42:45.861Z,2.67
2023-05-15T07:45:13.302Z,2.13
2023-05-15T07:47:46.084Z,2.37
2023-05-15T07:50:15.972Z,2.60
2023-05-15T07:52:43.449Z,2.50
2023-05-15T07:55:13.306Z,2.60
2023-05-15T07:57:40.690Z,3.00
2023-05-15T08:00:12.549Z,2.20
2023-05-15T08:02:46.530Z,2.23
2023-05-15T08:05:15.622Z,2.40
2023-05-15T08:07:42.679Z,2.38
2023-05-15T08:10:10.040Z,2.10
2023-05-15T08:12:37.318Z,2.30
2023-05-15T08:15:04.336Z,2.00
2023-05-15T08:17:31.188Z,1.90
2023-05-15T08:19:58.639Z,1.63
2023-05-15T08:22:30.295Z,2.13
2023-05-15T08:24:58.122Z,2.07
2023-05-15T08:27:26.963Z,2.10
2023-05-15T08:29:55.192Z,2.07
2023-05-15T08:32:23.011Z,2.37
2023-05-15T08:34:49.677Z,2.10
2023-05-15T08:37:16.767Z,2.20
2023-05-15T08:39:44.280Z,2.40
2023-05-15T08:42:37.245Z,1.90
2023-05-15T08:45:05.015Z,2.10
2023-05-15T08:47:38.853Z,2.60
2023-05-15T08:50:14.182Z,2.83
2023-05-15T08:52:48.126Z,2.40
2023-05-15T08:55:16.206Z,2.10
2023-05-15T08:57:46.960Z,2.60
2023-05-15T09:00:14.699Z,2.40
2023-05-15T09:02:42.763Z,2.37
2023-05-15T09:05:10.544Z,2.90
2023-05-15T09:07:44.828Z,2.73
2023-05-15T09:10:13.378Z,2.50
2023-05-15T09:12:44.109Z,2.47
2023-05-15T09:15:15.995Z,2.20
2023-05-15T09:17:46.019Z,2.47
2023-05-15T09:20:35.861Z,2.37
2023-05-15T09:23:21.474Z,2.20
2023-05-15T09:25:56.626Z,2.27
2023-05-15T09:28:30.350Z,2.30
2023-05-15T09:31:05.112Z,2.20
2023-05-15T09:33:34.957Z,2.67
2023-05-15T09:36:05.808Z,2.50
2023-05-15T09:38:48.400Z,2.70
2023-05-15T09:41:15.284Z,2.53
2023-05-15T09:43:44.309Z,2.60
2023-05-15T09:46:15.991Z,2.60
2023-05-15T09:48:42.896Z,2.67
2023-05-15T09:51:18.232Z,2.50
2023-05-15T09:53:50.848Z,2.80
2023-05-15T09:56:20.181Z,2.63
2023-05-15T09:58:57.631Z,2.33
2023-05-15T10:01:27.653Z,2.15
2023-05-15T10:04:03.678Z,2.50
2023-05-15T10:06:42.660Z,1.97
2023-05-15T10:09:11.166Z,2.40
2023-05-15T10:11:40.056Z,2.22
2023-05-15T10:14:11.913Z,2.00
2023-05-15T10:16:40.762Z,1.90
2023-05-15T10:19:12.088Z,1.97
2023-05-15T10:21:42.616Z,1.80
2023-05-15T10:24:10.742Z,2.23
2023-05-15T10:26:41.858Z,2.23
2023-05-15T10:29:12.290Z,2.07
2023-05-15T10:31:42.829Z,1.90
2023-05-15T10:34:10.810Z,1.87
2023-05-15T10:36:38.963Z,1.90
2023-05-15T10:39:07.322Z,1.70
2023-05-15T10:41:38.913Z,1.83
2023-05-15T10:44:06.908Z,1.63
2023-05-15T10:46:36.874Z,1.70
2023-05-15T10:49:06.234Z,1.63
2023-05-15T10:51:33.467Z,1.80
2023-05-15T10:54:04.375Z,1.70
2023-05-15T10:56:34.812Z,1.60
2023-05-15T10:59:12.048Z,1.73
2023-05-15T11:01:40.895Z,1.50
2023-05-15T11:04:10.083Z,1.70
2023-05-15T11:06:39.073Z,1.73
2023-05-15T11:09:27.967Z,1.60
2023-05-15T11:12:03.277Z,1.60
2023-05-15T11:14:34.704Z,1.63
2023-05-15T11:17:09.483Z,1.80
2023-05-15T11:19:49.907Z,1.43
2023-05-15T11:22:23.715Z,1.70
2023-05-15T11:24:51.137Z,1.60
2023-05-15T11:27:27.885Z,1.60
2023-05-15T11:30:26.617Z,1.67
2023-05-15T11:33:03.723Z,1.40
2023-05-15T11:35:42.097Z,1.60
2023-05-15T11:38:20.130Z,1.40
2023-05-15T11:40:58.311Z,1.20
2023-05-15T11:43:27.266Z,1.30
2023-05-15T11:45:58.866Z,1.33
2023-05-15T11:48:31.509Z,1.40
2023-05-15T11:51:01.118Z,1.50
2023-05-15T11:53:32.109Z,1.60
2023-05-15T11:56:01.455Z,1.37
2023-05-15T11:58:30.304Z,1.50
2023-05-15T12:00:57.959Z,1.30
2023-05-15T12:03:36.129Z,1.60
2023-05-15T12:06:06.252Z,1.33
2023-05-15T12:08:34.549Z,1.73
2023-05-15T12:11:02.176Z,1.60
2023-05-15T12:13:32.565Z,1.83
2023-05-15T12:16:05.029Z,1.73
2023-05-15T12:18:35.503Z,1.27
2023-05-15T12:21:04.835Z,1.70
2023-05-15T12:23:32.565Z,1.63
2023-05-15T12:26:05.933Z,1.97
2023-05-15T12:28:35.275Z,1.80
2023-05-15T12:31:02.204Z,1.50
2023-05-15T12:33:31.375Z,1.53
2023-05-15T12:36:01.113Z,1.60
2023-05-15T12:38:31.256Z,1.70
2023-05-15T12:40:58.129Z,1.63
2023-05-15T12:43:28.503Z,1.97
2023-05-15T12:45:56.520Z,1.80
2023-05-15T12:48:23.706Z,2.00
2023-05-15T12:50:50.574Z,1.73
2023-05-15T12:53:17.630Z,1.80
2023-05-15T12:55:48.875Z,1.80
2023-05-15T12:58:18.788Z,1.50
2023-05-15T13:00:46.776Z,1.93
2023-05-15T13:03:14.266Z,1.60
2023-05-15T13:05:49.680Z,1.93
2023-05-15T13:08:20.352Z,2.50
2023-05-15T13:10:56.022Z,1.90
2023-05-15T13:13:22.838Z,2.50
2023-05-15T13:15:50.617Z,2.10
2023-05-15T13:18:20.094Z,2.63
2023-05-15T13:20:51.344Z,2.07
2023-05-15T13:23:24.858Z,2.20
2023-05-15T13:25:51.678Z,2.00
2023-05-15T13:28:22.760Z,2.08
2023-05-15T13:30:49.477Z,1.90
2023-05-15T13:33:16.597Z,2.08
2023-05-15T13:35:45.940Z,1.70
2023-05-15T13:38:15.227Z,2.10
2023-05-15T13:40:41.993Z,2.30
2023-05-15T13:43:11.272Z,2.17
2023-05-15T13:45:38.390Z,2.47
2023-05-15T13:48:07.463Z,2.27
2023-05-15T13:50:36.799Z,1.90
2023-05-15T13:53:03.698Z,2.03
2023-05-15T13:55:33.071Z,2.37
2023-05-15T13:58:00.346Z,1.93
2023-05-15T14:00:27.246Z,1.90
2023-05-15T14:02:54.093Z,2.10
2023-05-15T14:05:23.048Z,1.80
2023-05-15T14:07:49.757Z,2.00
2023-05-15T14:10:18.703Z,2.20
2023-05-15T14:12:46.673Z,1.87
2023-05-15T14:15:16.041Z,1.90
2023-05-15T14:17:48.823Z,1.77
2023-05-15T14:20:15.704Z,2.10
2023-05-15T14:22:42.640Z,2.00
2023-05-15T14:25:11.970Z,2.10
2023-05-15T14:27:38.746Z,1.77
2023-05-15T14:30:06.214Z,1.73
2023-05-15T14:32:33.017Z,1.73
2023-05-15T14:35:00.111Z,1.90
2023-05-15T14:37:29.602Z,1.83
2023-05-15T14:39:56.385Z,1.50
2023-05-15T14:42:23.033Z,1.60
2023-05-15T14:44:49.736Z,1.40
2023-05-15T14:47:16.877Z,1.30
2023-05-15T14:49:43.608Z,1.40
2023-05-15T14:52:12.303Z,1.50
2023-05-15T14:54:39.826Z,1.70
2023-05-15T14:57:09.633Z,1.23
2023-05-15T14:59:36.499Z,1.40
2023-05-15T15:02:05.790Z,1.70
2023-05-15T15:04:35.179Z,1.50
2023-05-15T15:07:05.247Z,1.53
2023-05-15T15:09:34.519Z,1.90
2023-05-15T15:12:01.270Z,1.80
2023-05-15T15:14:30.566Z,2.30
2023-05-15T15:16:57.295Z,2.30
2023-05-15T15:19:24.490Z,2.10
2023-05-15T15:21:53.515Z,1.80
2023-05-15T15:24:20.164Z,2.00
2023-05-15T15:26:49.575Z,2.13
2023-05-15T15:29:18.928Z,1.93
2023-05-15T15:31:47.792Z,2.40
2023-05-15T15:34:14.527Z,2.03
2023-05-15T15:36:41.484Z,2.30
2023-05-15T15:39:08.265Z,2.00
2023-05-15T15:41:37.748Z,1.90
2023-05-15T15:44:04.688Z,2.10
2023-05-15T15:46:31.458Z,2.20
2023-05-15T15:48:58.152Z,1.90
2023-05-15T15:51:29.713Z,1.90
2023-05-15T15:53:58.600Z,2.10
2023-05-15T15:56:29.888Z,2.07
2023-05-15T15:58:56.551Z,2.00
2023-05-15T16:01:30.556Z,2.00
2023-05-15T16:04:02.046Z,1.80
2023-05-15T16:06:28.832Z,2.00
2023-05-15T16:08:55.566Z,1.70
2023-05-15T16:11:22.436Z,2.00
2023-05-15T16:13:51.704Z,2.13
2023-05-15T16:16:18.596Z,2.20
2023-05-15T16:18:45.762Z,1.70
2023-05-15T16:21:16.039Z,1.90
2023-05-15T16:23:43.022Z,2.10
2023-05-15T16:26:12.903Z,1.90
2023-05-15T16:28:39.585Z,1.93
2023-05-15T16:31:09.349Z,1.90
2023-05-15T16:33:36.306Z,1.90
2023-05-15T16:36:06.001Z,1.90
2023-05-15T16:38:34.899Z,2.30
2023-05-15T16:41:03.785Z,2.37
2023-05-15T16:43:30.571Z,2.10
2023-05-15T16:46:02.502Z,2.23
2023-05-15T16:48:29.338Z,2.30
2023-05-15T16:50:56.112Z,2.50
2023-05-15T16:53:23.153Z,2.10
2023-05-15T16:55:50.711Z,2.17
2023-05-15T16:58:17.376Z,2.27
2023-05-15T17:00:44.295Z,2.23
2023-05-15T17:03:13.519Z,2.10
2023-05-15T17:05:41.126Z,2.10
2023-05-15T17:08:07.794Z,2.37
2023-05-15T17:10:34.617Z,2.10
2023-05-15T17:13:01.377Z,1.80
2023-05-15T17:15:28.313Z,2.00
2023-05-15T17:17:55.134Z,1.97
2023-05-15T17:20:22.010Z,2.00
2023-05-15T17:22:48.757Z,2.00
2023-05-15T17:25:15.643Z,1.80
2023-05-15T17:27:42.301Z,2.00
2023-05-15T17:30:10.663Z,1.80
2023-05-15T17:32:39.695Z,2.00
2023-05-15T17:35:08.076Z,1.80
2023-05-15T17:37:34.900Z,2.00
2023-05-15T17:40:01.623Z,2.03
2023-05-15T17:42:28.452Z,1.73
2023-05-15T17:44:56.465Z,2.00
2023-05-15T17:47:23.505Z,2.00
2023-05-15T17:49:52.405Z,1.90
2023-05-15T17:52:19.106Z,2.20
2023-05-15T17:54:47.983Z,1.90
2023-05-15T17:57:16.956Z,2.20
2023-05-15T17:59:45.877Z,2.33
2023-05-15T18:02:12.671Z,2.60
2023-05-15T18:04:39.394Z,2.63
2023-05-15T18:07:06.545Z,2.50
2023-05-15T18:09:33.212Z,2.70
2023-05-15T18:11:59.921Z,2.50
2023-05-15T18:14:26.717Z,2.23
2023-05-15T18:16:58.327Z,2.40
2023-05-15T18:19:24.991Z,2.30
2023-05-15T18:21:53.806Z,2.50
2023-05-15T18:24:22.687Z,2.10
2023-05-15T18:26:49.395Z,2.03
2023-05-15T18:29:18.579Z,2.30
2023-05-15T18:31:49.751Z,2.00
2023-05-15T18:34:16.899Z,2.03
2023-05-15T18:36:45.734Z,2.10
2023-05-15T18:39:13.023Z,1.83
2023-05-15T18:41:44.426Z,2.10
2023-05-15T18:44:13.323Z,2.17
2023-05-15T18:46:40.101Z,2.27
2023-05-15T18:49:06.777Z,1.93
2023-05-15T18:51:33.452Z,2.23
2023-05-15T18:54:00.510Z,2.10
2023-05-15T18:56:32.096Z,1.80
2023-05-15T18:59:00.951Z,2.03
2023-05-15T19:01:29.838Z,2.13
2023-05-15T19:03:56.842Z,2.17
2023-05-15T19:06:25.904Z,2.13
2023-05-15T19:08:53.055Z,2.20
2023-05-15T19:11:19.763Z,1.83
2023-05-15T19:13:51.206Z,1.80
2023-05-15T19:16:20.163Z,2.07
2023-05-15T19:18:46.994Z,2.00
2023-05-15T19:21:15.679Z,1.97
2023-05-15T19:23:42.390Z,2.30
2023-05-15T19:26:11.458Z,1.77
2023-05-15T19:28:40.632Z,2.17
2023-05-15T19:31:24.131Z,2.00
2023-05-15T19:33:56.897Z,1.90
2023-05-15T19:36:23.937Z,2.20
2023-05-15T19:38:50.704Z,2.23
2023-05-15T19:41:19.859Z,2.07
2023-05-15T19:43:50.888Z,2.20
2023-05-15T19:46:20.972Z,2.00
2023-05-15T19:48:47.791Z,2.17
2023-05-15T19:51:14.664Z,2.30
2023-05-15T19:53:41.534Z,2.03
2023-05-15T19:56:10.424Z,2.00
2023-05-15T19:58:37.338Z,2.27
2023-05-15T20:01:04.274Z,1.97
2023-05-15T20:03:33.036Z,2.13
2023-05-15T20:06:01.260Z,2.37
2023-05-15T20:08:30.748Z,2.27
2023-05-15T20:10:57.956Z,2.30
2023-05-15T20:13:29.140Z,1.87
2023-05-15T20:15:57.897Z,2.30
2023-05-15T20:18:33.748Z,2.10
2023-05-15T20:21:01.564Z,2.30
2023-05-15T20:23:28.260Z,2.43
2023-05-15T20:25:54.982Z,2.57
2023-05-15T20:28:27.242Z,2.40
2023-05-15T20:31:01.786Z,2.60
2023-05-15T20:33:28.678Z,2.30
2023-05-15T20:35:56.883Z,2.40
2023-05-15T20:38:25.519Z,2.40
2023-05-15T20:40:52.859Z,2.53
2023-05-15T20:43:20.314Z,2.20
2023-05-15T20:45:49.502Z,2.50
2023-05-15T20:48:16.377Z,2.40
2023-05-15T20:50:46.083Z,2.23
2023-05-15T20:53:13.300Z,2.40
2023-05-15T20:55:42.327Z,2.87
2023-05-15T20:58:09.125Z,2.90
2023-05-15T21:00:38.172Z,2.70
2023-05-15T21:03:05.205Z,3.03
2023-05-15T21:05:32.493Z,2.60
2023-05-15T21:08:01.713Z,2.50
2023-05-15T21:10:28.787Z,3.03
2023-05-15T21:12:59.564Z,2.80
2023-05-15T21:15:26.372Z,2.83
2023-05-15T21:17:56.480Z,2.77
2023-05-15T21:20:23.220Z,2.37
2023-05-15T21:22:49.895Z,2.83
2023-05-15T21:25:19.048Z,2.90
2023-05-15T21:27:46.190Z,2.70
2023-05-15T21:30:13.378Z,2.80
2023-05-15T21:32:42.615Z,2.70
2023-05-15T21:35:12.164Z,2.60
2023-05-15T21:37:38.887Z,3.10
2023-05-15T21:40:06.654Z,2.80
2023-05-15T21:42:33.411Z,2.70
2023-05-15T21:45:04.214Z,3.03
2023-05-15T21:47:32.227Z,2.60
2023-05-15T21:49:58.961Z,3.13
2023-05-15T21:52:25.584Z,2.40
2023-05-15T21:54:54.547Z,2.77
2023-05-15T21:57:24.299Z,3.13
2023-05-15T21:59:53.488Z,3.10
2023-05-15T22:02:20.322Z,3.10
2023-05-15T22:04:49.162Z,2.80
2023-05-15T22:07:18.005Z,2.90
2023-05-15T22:09:47.320Z,3.13
2023-05-15T22:12:16.341Z,3.50
2023-05-15T22:14:54.541Z,3.00
2023-05-15T22:17:27.004Z,2.97
2023-05-15T22:19:53.879Z,3.30
2023-05-15T22:22:20.915Z,2.87
2023-05-15T22:24:47.906Z,3.17
2023-05-15T22:27:19.697Z,3.10
2023-05-15T22:29:46.417Z,3.13
2023-05-15T22:32:13.078Z,2.93
2023-05-15T22:34:40.100Z,3.23
2023-05-15T22:37:06.849Z,3.07
2023-05-15T22:39:36.015Z,3.10
2023-05-15T22:42:07.002Z,3.03
2023-05-15T22:44:36.061Z,3.40
2023-05-15T22:47:05.576Z,3.03
2023-05-15T22:49:32.275Z,2.65
2023-05-15T22:51:59.276Z,2.83
2023-05-15T22:54:28.446Z,3.03
2023-05-15T22:56:57.825Z,2.97
2023-05-15T22:59:24.566Z,2.70
2023-05-15T23:01:51.413Z,3.00
2023-05-15T23:04:21.087Z,2.80
2023-05-15T23:06:50.899Z,3.10
2023-05-15T23:09:20.066Z,2.77
2023-05-15T23:11:46.766Z,2.57
2023-05-15T23:14:15.764Z,2.97
2023-05-15T23:16:45.142Z,3.20
2023-05-15T23:19:14.389Z,2.97
2023-05-15T23:21:43.292Z,2.90
2023-05-15T23:24:10.173Z,3.00
2023-05-15T23:26:36.900Z,2.47
2023-05-15T23:29:03.771Z,2.80
2023-05-15T23:31:30.577Z,3.10
2023-05-15T23:33:57.297Z,3.00
2023-05-15T23:36:23.955Z,2.90
2023-05-15T23:38:50.754Z,2.90
2023-05-15T23:41:19.669Z,2.60
2023-05-15T23:43:46.322Z,2.90
2023-05-15T23:46:13.285Z,2.70
2023-05-15T23:48:39.978Z,3.03
2023-05-15T23:51:06.718Z,2.83
2023-05-15T23:53:33.433Z,2.50
2023-05-15T23:56:00.187Z,2.70
2023-05-15T23:58:29.261Z,2.50
